sensor_id;sensor_type;location;lat;lon;timestamp;P1;durP1;ratioP1;P2;durP2;ratioP2
19384;SDS011;9828;54.122;17.974;2023-03-14T00:04:08;12.37;;;8.13;;
19384;SDS011;9828;54.122;17.974;2023-03-14T00:09:29;10.07;;;6.80;;
19384;SDS011;9828;54.122;17.974;2023-03-14T00:14:51;11.30;;;6.93;;
19384;SDS011;9828;54.122;17.974;2023-03-14T00:20:12;15.43;;;7.77;;
19384;SDS011;9828;54.122;17.974;2023-03-14T00:25:34;11.33;;;7.27;;
19384;SDS011;9828;54.122;17.974;2023-03-14T00:30:55;12.83;;;7.63;;
19384;SDS011;9828;54.122;17.974;2023-03-14T00:36:16;11.10;;;7.43;;
19384;SDS011;9828;54.122;17.974;2023-03-14T00:41:38;10.40;;;6.90;;
19384;SDS011;9828;54.122;17.974;2023-03-14T00:46:59;10.93;;;7.50;;
19384;SDS011;9828;54.122;17.974;2023-03-14T00:52:20;9.93;;;6.47;;
19384;SDS011;9828;54.122;17.974;2023-03-14T00:57:41;11.70;;;7.10;;
19384;SDS011;9828;54.122;17.974;2023-03-14T01:03:02;14.93;;;7.10;;
19384;SDS011;9828;54.122;17.974;2023-03-14T01:08:24;10.90;;;7.23;;
19384;SDS011;9828;54.122;17.974;2023-03-14T01:13:46;12.70;;;6.70;;
19384;SDS011;9828;54.122;17.974;2023-03-14T01:19:09;12.10;;;7.00;;
19384;SDS011;9828;54.122;17.974;2023-03-14T01:24:30;11.50;;;7.07;;
19384;SDS011;9828;54.122;17.974;2023-03-14T01:29:51;13.13;;;6.60;;
19384;SDS011;9828;54.122;17.974;2023-03-14T01:35:12;18.07;;;6.90;;
19384;SDS011;9828;54.122;17.974;2023-03-14T01:40:34;10.73;;;7.13;;
19384;SDS011;9828;54.122;17.974;2023-03-14T01:51:30;10.40;;;7.00;;
19384;SDS011;9828;54.122;17.974;2023-03-14T01:57:39;12.43;;;6.60;;
19384;SDS011;9828;54.122;17.974;2023-03-14T02:03:06;10.43;;;5.90;;
19384;SDS011;9828;54.122;17.974;2023-03-14T02:08:35;14.43;;;6.70;;
19384;SDS011;9828;54.122;17.974;2023-03-14T02:14:01;10.83;;;7.13;;
19384;SDS011;9828;54.122;17.974;2023-03-14T02:31:11;8.00;;;5.30;;
19384;SDS011;9828;54.122;17.974;2023-03-14T02:36:32;7.97;;;4.97;;
19384;SDS011;9828;54.122;17.974;2023-03-14T02:41:54;9.80;;;6.40;;
19384;SDS011;9828;54.122;17.974;2023-03-14T02:47:16;11.10;;;6.87;;
19384;SDS011;9828;54.122;17.974;2023-03-14T02:52:39;12.13;;;6.30;;
19384;SDS011;9828;54.122;17.974;2023-03-14T02:58:00;8.10;;;5.07;;
19384;SDS011;9828;54.122;17.974;2023-03-14T03:03:22;8.77;;;5.27;;
19384;SDS011;9828;54.122;17.974;2023-03-14T03:08:43;15.53;;;7.10;;
19384;SDS011;9828;54.122;17.974;2023-03-14T03:14:05;8.23;;;5.40;;
19384;SDS011;9828;54.122;17.974;2023-03-14T03:19:26;9.53;;;5.30;;
19384;SDS011;9828;54.122;17.974;2023-03-14T03:24:48;9.67;;;5.00;;
19384;SDS011;9828;54.122;17.974;2023-03-14T03:30:09;6.90;;;4.97;;
19384;SDS011;9828;54.122;17.974;2023-03-14T03:35:31;9.10;;;4.87;;
19384;SDS011;9828;54.122;17.974;2023-03-14T03:40:53;8.97;;;5.90;;
19384;SDS011;9828;54.122;17.974;2023-03-14T03:46:17;8.97;;;5.70;;
19384;SDS011;9828;54.122;17.974;2023-03-14T03:51:39;9.27;;;4.63;;
19384;SDS011;9828;54.122;17.974;2023-03-14T03:57:01;7.60;;;4.93;;
19384;SDS011;9828;54.122;17.974;2023-03-14T04:02:22;9.30;;;5.63;;
19384;SDS011;9828;54.122;17.974;2023-03-14T04:07:44;8.90;;;6.30;;
19384;SDS011;9828;54.122;17.974;2023-03-14T04:13:10;8.07;;;5.97;;
19384;SDS011;9828;54.122;17.974;2023-03-14T04:18:33;8.57;;;4.97;;
19384;SDS011;9828;54.122;17.974;2023-03-14T04:23:54;7.63;;;4.80;;
19384;SDS011;9828;54.122;17.974;2023-03-14T04:29:17;5.13;;;3.90;;
19384;SDS011;9828;54.122;17.974;2023-03-14T04:34:39;5.87;;;3.77;;
19384;SDS011;9828;54.122;17.974;2023-03-14T04:40:00;6.67;;;3.63;;
19384;SDS011;9828;54.122;17.974;2023-03-14T04:45:25;5.83;;;3.90;;
19384;SDS011;9828;54.122;17.974;2023-03-14T04:50:48;6.73;;;4.20;;
19384;SDS011;9828;54.122;17.974;2023-03-14T04:56:10;7.67;;;4.47;;
19384;SDS011;9828;54.122;17.974;2023-03-14T05:01:35;7.70;;;5.13;;
19384;SDS011;9828;54.122;17.974;2023-03-14T05:07:14;8.40;;;4.83;;
19384;SDS011;9828;54.122;17.974;2023-03-14T05:12:52;8.07;;;4.57;;
19384;SDS011;9828;54.122;17.974;2023-03-14T05:18:23;12.97;;;6.40;;
19384;SDS011;9828;54.122;17.974;2023-03-14T05:23:58;13.73;;;6.97;;
19384;SDS011;9828;54.122;17.974;2023-03-14T05:29:40;6.93;;;4.47;;
19384;SDS011;9828;54.122;17.974;2023-03-14T05:35:20;9.93;;;5.63;;
19384;SDS011;9828;54.122;17.974;2023-03-14T05:40:57;13.10;;;7.23;;
19384;SDS011;9828;54.122;17.974;2023-03-14T05:46:47;7.53;;;4.93;;
19384;SDS011;9828;54.122;17.974;2023-03-14T05:52:28;12.73;;;7.90;;
19384;SDS011;9828;54.122;17.974;2023-03-14T05:58:02;10.33;;;6.07;;
19384;SDS011;9828;54.122;17.974;2023-03-14T06:03:46;6.60;;;4.37;;
19384;SDS011;9828;54.122;17.974;2023-03-14T06:09:08;9.30;;;5.67;;
19384;SDS011;9828;54.122;17.974;2023-03-14T06:14:32;4.33;;;3.17;;
19384;SDS011;9828;54.122;17.974;2023-03-14T06:19:53;4.87;;;2.60;;
19384;SDS011;9828;54.122;17.974;2023-03-14T06:25:14;11.83;;;8.50;;
19384;SDS011;9828;54.122;17.974;2023-03-14T06:30:39;4.70;;;3.00;;
19384;SDS011;9828;54.122;17.974;2023-03-14T06:36:03;4.30;;;2.70;;
19384;SDS011;9828;54.122;17.974;2023-03-14T06:41:25;11.53;;;6.70;;
19384;SDS011;9828;54.122;17.974;2023-03-14T06:46:47;13.73;;;9.47;;
19384;SDS011;9828;54.122;17.974;2023-03-14T06:52:08;15.97;;;9.90;;
19384;SDS011;9828;54.122;17.974;2023-03-14T06:57:29;20.80;;;11.60;;
19384;SDS011;9828;54.122;17.974;2023-03-14T07:02:50;17.63;;;8.83;;
19384;SDS011;9828;54.122;17.974;2023-03-14T07:08:18;12.80;;;6.37;;
19384;SDS011;9828;54.122;17.974;2023-03-14T07:13:39;11.93;;;6.33;;
19384;SDS011;9828;54.122;17.974;2023-03-14T07:19:01;13.27;;;7.40;;
19384;SDS011;9828;54.122;17.974;2023-03-14T07:24:24;16.10;;;7.87;;
19384;SDS011;9828;54.122;17.974;2023-03-14T07:29:45;12.87;;;8.23;;
19384;SDS011;9828;54.122;17.974;2023-03-14T07:35:07;16.60;;;10.93;;
19384;SDS011;9828;54.122;17.974;2023-03-14T07:40:32;15.13;;;8.07;;
19384;SDS011;9828;54.122;17.974;2023-03-14T07:45:53;42.40;;;17.23;;
19384;SDS011;9828;54.122;17.974;2023-03-14T07:51:18;23.53;;;12.73;;
19384;SDS011;9828;54.122;17.974;2023-03-14T07:56:40;12.77;;;9.50;;
19384;SDS011;9828;54.122;17.974;2023-03-14T08:02:01;21.07;;;10.50;;
19384;SDS011;9828;54.122;17.974;2023-03-14T08:07:22;10.17;;;5.87;;
19384;SDS011;9828;54.122;17.974;2023-03-14T08:12:43;11.90;;;7.47;;
19384;SDS011;9828;54.122;17.974;2023-03-14T08:18:05;11.50;;;7.57;;
19384;SDS011;9828;54.122;17.974;2023-03-14T08:23:26;13.37;;;8.73;;
19384;SDS011;9828;54.122;17.974;2023-03-14T08:28:47;20.50;;;8.13;;
19384;SDS011;9828;54.122;17.974;2023-03-14T08:34:08;8.90;;;6.13;;
19384;SDS011;9828;54.122;17.974;2023-03-14T08:39:29;8.17;;;5.50;;
19384;SDS011;9828;54.122;17.974;2023-03-14T08:44:51;13.60;;;9.07;;
19384;SDS011;9828;54.122;17.974;2023-03-14T08:50:12;8.20;;;5.40;;
19384;SDS011;9828;54.122;17.974;2023-03-14T08:55:36;9.73;;;5.40;;
19384;SDS011;9828;54.122;17.974;2023-03-14T09:00:57;7.60;;;5.33;;
19384;SDS011;9828;54.122;17.974;2023-03-14T09:06:18;8.63;;;5.83;;
19384;SDS011;9828;54.122;17.974;2023-03-14T09:11:39;6.03;;;4.90;;
19384;SDS011;9828;54.122;17.974;2023-03-14T09:17:01;6.17;;;4.73;;
19384;SDS011;9828;54.122;17.974;2023-03-14T09:22:24;9.77;;;5.50;;
19384;SDS011;9828;54.122;17.974;2023-03-14T09:27:45;5.87;;;4.17;;
19384;SDS011;9828;54.122;17.974;2023-03-14T09:33:07;6.80;;;5.13;;
19384;SDS011;9828;54.122;17.974;2023-03-14T09:38:28;8.23;;;5.17;;
19384;SDS011;9828;54.122;17.974;2023-03-14T09:43:49;7.33;;;5.17;;
19384;SDS011;9828;54.122;17.974;2023-03-14T09:49:27;12.17;;;7.60;;
19384;SDS011;9828;54.122;17.974;2023-03-14T09:54:54;10.07;;;6.10;;
19384;SDS011;9828;54.122;17.974;2023-03-14T10:00:21;9.80;;;5.40;;
19384;SDS011;9828;54.122;17.974;2023-03-14T10:05:44;10.90;;;6.53;;
19384;SDS011;9828;54.122;17.974;2023-03-14T10:11:06;9.13;;;5.13;;
19384;SDS011;9828;54.122;17.974;2023-03-14T10:16:31;5.60;;;3.70;;
19384;SDS011;9828;54.122;17.974;2023-03-14T10:22:04;5.37;;;4.10;;
19384;SDS011;9828;54.122;17.974;2023-03-14T10:27:32;7.70;;;4.90;;
19384;SDS011;9828;54.122;17.974;2023-03-14T10:32:55;14.77;;;6.97;;
19384;SDS011;9828;54.122;17.974;2023-03-14T10:38:16;25.00;;;11.80;;
19384;SDS011;9828;54.122;17.974;2023-03-14T10:43:37;13.07;;;6.13;;
19384;SDS011;9828;54.122;17.974;2023-03-14T10:48:59;13.00;;;6.73;;
19384;SDS011;9828;54.122;17.974;2023-03-14T10:54:29;8.67;;;5.80;;
19384;SDS011;9828;54.122;17.974;2023-03-14T10:59:51;6.07;;;4.23;;
19384;SDS011;9828;54.122;17.974;2023-03-14T11:10:48;6.33;;;3.30;;
19384;SDS011;9828;54.122;17.974;2023-03-14T11:22:05;11.83;;;7.60;;
19384;SDS011;9828;54.122;17.974;2023-03-14T11:27:48;11.13;;;5.07;;
19384;SDS011;9828;54.122;17.974;2023-03-14T11:44:22;8.43;;;3.03;;
19384;SDS011;9828;54.122;17.974;2023-03-14T11:55:37;31.48;;;18.05;;
19384;SDS011;9828;54.122;17.974;2023-03-14T12:01:03;6.33;;;3.83;;
19384;SDS011;9828;54.122;17.974;2023-03-14T12:06:36;5.47;;;2.72;;
19384;SDS011;9828;54.122;17.974;2023-03-14T12:12:10;12.53;;;5.13;;
19384;SDS011;9828;54.122;17.974;2023-03-14T12:17:40;8.05;;;3.45;;
19384;SDS011;9828;54.122;17.974;2023-03-14T12:23:04;7.27;;;3.17;;
19384;SDS011;9828;54.122;17.974;2023-03-14T12:28:31;10.17;;;4.03;;
19384;SDS011;9828;54.122;17.974;2023-03-14T12:34:00;10.30;;;3.25;;
19384;SDS011;9828;54.122;17.974;2023-03-14T12:50:54;13.13;;;4.33;;
19384;SDS011;9828;54.122;17.974;2023-03-14T13:59:40;5.23;;;2.63;;
19384;SDS011;9828;54.122;17.974;2023-03-14T14:05:01;28.60;;;15.80;;
19384;SDS011;9828;54.122;17.974;2023-03-14T14:10:25;15.17;;;7.73;;
19384;SDS011;9828;54.122;17.974;2023-03-14T14:15:57;11.73;;;8.53;;
19384;SDS011;9828;54.122;17.974;2023-03-14T14:21:21;8.40;;;4.10;;
19384;SDS011;9828;54.122;17.974;2023-03-14T14:26:58;8.53;;;4.03;;
19384;SDS011;9828;54.122;17.974;2023-03-14T14:32:47;12.37;;;6.37;;
19384;SDS011;9828;54.122;17.974;2023-03-14T14:38:12;13.40;;;6.17;;
19384;SDS011;9828;54.122;17.974;2023-03-14T14:43:38;19.77;;;10.43;;
19384;SDS011;9828;54.122;17.974;2023-03-14T14:49:03;13.83;;;7.63;;
19384;SDS011;9828;54.122;17.974;2023-03-14T14:54:50;6.17;;;3.37;;
19384;SDS011;9828;54.122;17.974;2023-03-14T15:00:26;9.27;;;5.23;;
19384;SDS011;9828;54.122;17.974;2023-03-14T15:05:48;8.30;;;3.97;;
19384;SDS011;9828;54.122;17.974;2023-03-14T15:11:19;6.97;;;3.50;;
19384;SDS011;9828;54.122;17.974;2023-03-14T15:16:45;9.67;;;4.87;;
19384;SDS011;9828;54.122;17.974;2023-03-14T15:22:12;11.37;;;3.70;;
19384;SDS011;9828;54.122;17.974;2023-03-14T15:27:34;5.27;;;2.40;;
19384;SDS011;9828;54.122;17.974;2023-03-14T15:32:56;12.50;;;5.93;;
19384;SDS011;9828;54.122;17.974;2023-03-14T15:38:19;47.83;;;31.53;;
19384;SDS011;9828;54.122;17.974;2023-03-14T15:43:42;13.40;;;8.23;;
19384;SDS011;9828;54.122;17.974;2023-03-14T15:49:04;16.97;;;8.23;;
19384;SDS011;9828;54.122;17.974;2023-03-14T15:54:25;31.10;;;20.10;;
19384;SDS011;9828;54.122;17.974;2023-03-14T15:59:50;24.00;;;14.60;;
19384;SDS011;9828;54.122;17.974;2023-03-14T16:05:12;25.90;;;14.70;;
19384;SDS011;9828;54.122;17.974;2023-03-14T16:10:33;25.37;;;15.40;;
19384;SDS011;9828;54.122;17.974;2023-03-14T16:15:59;129.10;;;55.63;;
19384;SDS011;9828;54.122;17.974;2023-03-14T16:21:21;28.87;;;16.00;;
19384;SDS011;9828;54.122;17.974;2023-03-14T16:26:43;16.70;;;9.23;;
19384;SDS011;9828;54.122;17.974;2023-03-14T16:32:04;11.00;;;6.13;;
19384;SDS011;9828;54.122;17.974;2023-03-14T16:37:26;14.13;;;6.33;;
19384;SDS011;9828;54.122;17.974;2023-03-14T16:42:47;8.83;;;4.10;;
19384;SDS011;9828;54.122;17.974;2023-03-14T16:48:28;5.00;;;2.57;;
19384;SDS011;9828;54.122;17.974;2023-03-14T16:53:49;16.00;;;12.07;;
19384;SDS011;9828;54.122;17.974;2023-03-14T16:59:11;14.30;;;8.93;;
19384;SDS011;9828;54.122;17.974;2023-03-14T17:04:32;16.67;;;11.00;;
19384;SDS011;9828;54.122;17.974;2023-03-14T17:09:53;17.57;;;10.97;;
19384;SDS011;9828;54.122;17.974;2023-03-14T17:15:24;15.07;;;8.60;;
19384;SDS011;9828;54.122;17.974;2023-03-14T17:20:45;30.57;;;15.57;;
19384;SDS011;9828;54.122;17.974;2023-03-14T17:26:07;66.63;;;33.77;;
19384;SDS011;9828;54.122;17.974;2023-03-14T17:31:28;70.30;;;41.03;;
19384;SDS011;9828;54.122;17.974;2023-03-14T17:36:49;88.07;;;47.57;;
19384;SDS011;9828;54.122;17.974;2023-03-14T17:42:11;98.07;;;52.50;;
19384;SDS011;9828;54.122;17.974;2023-03-14T17:47:32;95.40;;;46.87;;
19384;SDS011;9828;54.122;17.974;2023-03-14T17:52:53;62.87;;;34.17;;
19384;SDS011;9828;54.122;17.974;2023-03-14T17:58:14;33.10;;;18.53;;
19384;SDS011;9828;54.122;17.974;2023-03-14T18:03:36;20.10;;;10.77;;
19384;SDS011;9828;54.122;17.974;2023-03-14T18:08:57;18.93;;;9.73;;
19384;SDS011;9828;54.122;17.974;2023-03-14T18:14:19;21.07;;;10.00;;
19384;SDS011;9828;54.122;17.974;2023-03-14T18:19:40;27.70;;;11.63;;
19384;SDS011;9828;54.122;17.974;2023-03-14T18:25:02;22.23;;;10.07;;
19384;SDS011;9828;54.122;17.974;2023-03-14T18:30:23;28.77;;;11.33;;
19384;SDS011;9828;54.122;17.974;2023-03-14T18:35:45;34.10;;;12.87;;
19384;SDS011;9828;54.122;17.974;2023-03-14T18:41:07;17.87;;;7.67;;
19384;SDS011;9828;54.122;17.974;2023-03-14T18:46:29;8.63;;;4.30;;
19384;SDS011;9828;54.122;17.974;2023-03-14T18:51:51;10.50;;;4.17;;
19384;SDS011;9828;54.122;17.974;2023-03-14T18:57:12;4.63;;;2.00;;
19384;SDS011;9828;54.122;17.974;2023-03-14T19:02:33;6.77;;;4.27;;
19384;SDS011;9828;54.122;17.974;2023-03-14T19:07:54;7.50;;;4.00;;
19384;SDS011;9828;54.122;17.974;2023-03-14T19:13:17;6.07;;;2.87;;
19384;SDS011;9828;54.122;17.974;2023-03-14T19:18:39;7.47;;;3.80;;
19384;SDS011;9828;54.122;17.974;2023-03-14T19:24:01;7.17;;;3.30;;
19384;SDS011;9828;54.122;17.974;2023-03-14T19:29:24;7.50;;;4.00;;
19384;SDS011;9828;54.122;17.974;2023-03-14T19:34:45;7.27;;;2.43;;
19384;SDS011;9828;54.122;17.974;2023-03-14T19:40:06;7.17;;;3.00;;
19384;SDS011;9828;54.122;17.974;2023-03-14T19:45:29;8.67;;;2.50;;
19384;SDS011;9828;54.122;17.974;2023-03-14T19:50:52;11.13;;;3.40;;
19384;SDS011;9828;54.122;17.974;2023-03-14T19:56:13;9.17;;;2.90;;
19384;SDS011;9828;54.122;17.974;2023-03-14T20:01:35;7.40;;;3.23;;
19384;SDS011;9828;54.122;17.974;2023-03-14T20:06:58;3.20;;;1.80;;
19384;SDS011;9828;54.122;17.974;2023-03-14T20:12:19;5.83;;;2.70;;
19384;SDS011;9828;54.122;17.974;2023-03-14T20:17:40;10.07;;;3.60;;
19384;SDS011;9828;54.122;17.974;2023-03-14T20:23:01;5.17;;;2.03;;
19384;SDS011;9828;54.122;17.974;2023-03-14T20:28:23;11.40;;;3.40;;
19384;SDS011;9828;54.122;17.974;2023-03-14T20:33:44;8.30;;;2.53;;
19384;SDS011;9828;54.122;17.974;2023-03-14T20:39:05;5.23;;;2.53;;
19384;SDS011;9828;54.122;17.974;2023-03-14T20:44:27;6.93;;;2.70;;
19384;SDS011;9828;54.122;17.974;2023-03-14T20:49:48;8.57;;;2.57;;
19384;SDS011;9828;54.122;17.974;2023-03-14T20:55:09;6.73;;;2.77;;
19384;SDS011;9828;54.122;17.974;2023-03-14T21:00:30;7.57;;;3.10;;
19384;SDS011;9828;54.122;17.974;2023-03-14T21:05:51;3.10;;;2.00;;
19384;SDS011;9828;54.122;17.974;2023-03-14T21:11:13;2.17;;;1.30;;
19384;SDS011;9828;54.122;17.974;2023-03-14T21:16:34;4.17;;;1.70;;
19384;SDS011;9828;54.122;17.974;2023-03-14T21:21:59;4.90;;;1.97;;
19384;SDS011;9828;54.122;17.974;2023-03-14T21:27:21;2.60;;;1.27;;
19384;SDS011;9828;54.122;17.974;2023-03-14T21:32:42;2.33;;;1.30;;
19384;SDS011;9828;54.122;17.974;2023-03-14T21:38:04;2.53;;;1.23;;
19384;SDS011;9828;54.122;17.974;2023-03-14T21:43:25;0.90;;;0.70;;
19384;SDS011;9828;54.122;17.974;2023-03-14T21:48:47;4.67;;;1.60;;
19384;SDS011;9828;54.122;17.974;2023-03-14T21:54:08;3.23;;;1.23;;
19384;SDS011;9828;54.122;17.974;2023-03-14T21:59:30;6.17;;;1.63;;
19384;SDS011;9828;54.122;17.974;2023-03-14T22:04:53;4.37;;;1.53;;
19384;SDS011;9828;54.122;17.974;2023-03-14T22:10:14;6.27;;;1.90;;
19384;SDS011;9828;54.122;17.974;2023-03-14T22:15:36;4.23;;;1.67;;
19384;SDS011;9828;54.122;17.974;2023-03-14T22:20:57;7.47;;;2.17;;
19384;SDS011;9828;54.122;17.974;2023-03-14T22:26:18;2.70;;;1.57;;
19384;SDS011;9828;54.122;17.974;2023-03-14T22:31:39;2.63;;;1.63;;
19384;SDS011;9828;54.122;17.974;2023-03-14T22:37:01;7.03;;;1.53;;
19384;SDS011;9828;54.122;17.974;2023-03-14T22:42:24;7.30;;;1.77;;
19384;SDS011;9828;54.122;17.974;2023-03-14T22:47:45;8.77;;;2.47;;
19384;SDS011;9828;54.122;17.974;2023-03-14T22:53:06;4.43;;;1.90;;
19384;SDS011;9828;54.122;17.974;2023-03-14T22:58:28;8.63;;;2.17;;
19384;SDS011;9828;54.122;17.974;2023-03-14T23:03:49;7.13;;;2.00;;
19384;SDS011;9828;54.122;17.974;2023-03-14T23:09:10;7.10;;;1.97;;
19384;SDS011;9828;54.122;17.974;2023-03-14T23:14:31;14.43;;;2.33;;
19384;SDS011;9828;54.122;17.974;2023-03-14T23:19:52;8.13;;;1.80;;
19384;SDS011;9828;54.122;17.974;2023-03-14T23:25:13;8.33;;;1.73;;
19384;SDS011;9828;54.122;17.974;2023-03-14T23:30:37;8.53;;;2.07;;
19384;SDS011;9828;54.122;17.974;2023-03-14T23:35:59;5.47;;;1.73;;
19384;SDS011;9828;54.122;17.974;2023-03-14T23:41:23;9.53;;;2.13;;
19384;SDS011;9828;54.122;17.974;2023-03-14T23:46:44;12.13;;;2.37;;
19384;SDS011;9828;54.122;17.974;2023-03-14T23:52:06;15.93;;;3.63;;
19384;SDS011;9828;54.122;17.974;2023-03-14T23:57:28;9.03;;;2.30;;
